createdAt,value
2018-07-12T00:02:06.817Z,18.17
2018-07-12T00:04:46.383Z,17.50
2018-07-12T00:07:25.959Z,19.87
2018-07-12T00:10:05.553Z,17.10
2018-07-12T00:12:45.213Z,16.43
2018-07-12T00:15:24.780Z,16.43
2018-07-12T00:18:04.774Z,15.37
2018-07-12T00:20:44.717Z,22.80
2018-07-12T00:23:24.356Z,15.60
2018-07-12T00:26:04.124Z,12.87
2018-07-12T00:28:43.741Z,15.90
2018-07-12T00:31:23.472Z,15.83
2018-07-12T00:34:03.223Z,13.93
2018-07-12T00:36:42.838Z,14.60
2018-07-12T00:39:22.520Z,14.90
2018-07-12T00:42:02.318Z,17.00
2018-07-12T00:44:41.992Z,28.37
2018-07-12T00:47:21.766Z,17.97
2018-07-12T00:50:01.505Z,16.13
2018-07-12T00:52:41.182Z,15.00
2018-07-12T00:55:20.854Z,17.07
2018-07-12T00:58:00.588Z,14.40
2018-07-12T01:00:40.482Z,16.13
2018-07-12T01:03:20.022Z,14.73
2018-07-12T01:05:59.819Z,13.37
2018-07-12T01:08:39.615Z,14.63
2018-07-12T01:11:19.433Z,18.20
2018-07-12T01:13:58.867Z,13.90
2018-07-12T01:16:38.571Z,12.10
2018-07-12T01:19:18.369Z,24.73
2018-07-12T01:21:58.030Z,22.50
2018-07-12T01:24:37.646Z,15.27
2018-07-12T01:27:18.062Z,14.10
2018-07-12T01:29:57.612Z,24.50
2018-07-12T01:32:37.158Z,17.97
2018-07-12T01:35:17.019Z,21.20
2018-07-12T01:37:56.694Z,21.73
2018-07-12T01:40:36.477Z,18.07
2018-07-12T01:43:10.622Z,15.53
2018-07-12T01:45:50.208Z,29.80
2018-07-12T01:48:29.984Z,13.77
2018-07-12T01:51:03.868Z,15.40
2018-07-12T01:53:43.616Z,23.50
2018-07-12T01:56:24.259Z,15.77
2018-07-12T01:59:03.981Z,15.87
2018-07-12T02:01:43.734Z,21.53
2018-07-12T02:04:23.388Z,18.83
2018-07-12T02:07:03.111Z,20.10
2018-07-12T02:09:42.817Z,18.07
2018-07-12T02:12:22.513Z,20.13
2018-07-12T02:15:02.228Z,19.20
2018-07-12T02:17:41.837Z,21.27
2018-07-12T02:20:21.389Z,15.53
2018-07-12T02:22:54.969Z,15.43
2018-07-12T02:25:34.575Z,18.23
2018-07-12T02:28:14.390Z,17.13
2018-07-12T02:30:54.095Z,18.40
2018-07-12T02:33:33.941Z,22.47
2018-07-12T02:36:13.501Z,14.10
2018-07-12T02:38:47.200Z,25.27
2018-07-12T02:41:26.961Z,22.70
2018-07-12T02:44:06.574Z,26.20
2018-07-12T02:46:46.097Z,24.20
2018-07-12T02:49:25.847Z,25.90
2018-07-12T02:52:05.593Z,22.63
2018-07-12T02:54:45.358Z,24.60
2018-07-12T02:57:24.965Z,25.33
2018-07-12T03:00:04.688Z,23.23
2018-07-12T03:02:44.348Z,25.63
2018-07-12T03:05:24.090Z,26.93
2018-07-12T03:08:03.630Z,24.07
2018-07-12T03:10:43.394Z,18.70
2018-07-12T03:13:23.239Z,18.43
2018-07-12T03:16:02.954Z,20.93
2018-07-12T03:18:42.662Z,22.27
2018-07-12T03:21:16.397Z,20.60
2018-07-12T03:23:56.143Z,18.43
2018-07-12T03:26:35.962Z,26.93
2018-07-12T03:29:15.658Z,16.80
2018-07-12T03:31:55.296Z,23.60
2018-07-12T03:34:35.127Z,21.50
2018-07-12T03:37:14.838Z,20.83
2018-07-12T03:39:54.599Z,22.83
2018-07-12T03:42:34.204Z,28.20
2018-07-12T03:45:13.878Z,17.77
2018-07-12T03:47:53.501Z,31.87
2018-07-12T03:50:33.083Z,16.27
2018-07-12T03:53:12.833Z,19.17
2018-07-12T03:55:52.425Z,21.23
2018-07-12T03:58:32.214Z,15.63
2018-07-12T04:01:12.025Z,18.77
2018-07-12T04:03:45.740Z,20.27
2018-07-12T04:06:25.502Z,24.00
2018-07-12T04:09:05.897Z,19.80
2018-07-12T04:11:45.596Z,25.27
2018-07-12T04:14:25.307Z,22.23
2018-07-12T04:17:04.944Z,22.20
2018-07-12T04:19:44.592Z,20.60
2018-07-12T04:22:24.251Z,17.17
2018-07-12T04:25:03.998Z,20.60
2018-07-12T04:27:37.695Z,23.10
2018-07-12T04:30:17.231Z,26.53
2018-07-12T04:32:56.813Z,19.90
2018-07-12T04:35:36.517Z,17.03
2018-07-12T04:38:16.104Z,18.50
2018-07-12T04:40:55.852Z,20.00
2018-07-12T04:43:35.892Z,27.80
2018-07-12T04:46:15.685Z,24.60
2018-07-12T04:48:55.449Z,21.10
2018-07-12T04:51:36.209Z,22.20
2018-07-12T04:54:16.058Z,26.87
2018-07-12T04:56:49.580Z,17.87
2018-07-12T04:59:29.334Z,17.90
2018-07-12T05:02:08.995Z,24.03
2018-07-12T05:04:48.558Z,26.80
2018-07-12T05:07:28.349Z,35.40
2018-07-12T05:10:08.361Z,20.10
2018-07-12T05:12:47.901Z,34.30
2018-07-12T05:15:27.682Z,27.43
2018-07-12T05:18:07.498Z,28.93
2018-07-12T05:20:47.240Z,29.40
2018-07-12T05:23:26.799Z,31.90
2018-07-12T05:26:06.485Z,26.17
2018-07-12T05:28:46.614Z,23.93
2018-07-12T05:31:26.156Z,33.17
2018-07-12T05:34:05.873Z,25.70
2018-07-12T05:36:51.939Z,29.80
2018-07-12T05:39:21.391Z,31.90
2018-07-12T05:41:50.074Z,33.60
2018-07-12T05:44:18.555Z,38.27
2018-07-12T05:46:47.332Z,26.50
2018-07-12T05:49:15.772Z,29.90
2018-07-12T05:51:44.686Z,25.20
2018-07-12T05:54:13.481Z,29.97
2018-07-12T05:56:42.046Z,30.17
2018-07-12T05:59:10.643Z,35.47
2018-07-12T06:01:50.386Z,29.53
2018-07-12T06:04:18.821Z,26.37
2018-07-12T06:06:47.386Z,27.40
2018-07-12T06:09:15.814Z,23.53
2018-07-12T06:11:44.324Z,33.93
2018-07-12T06:14:13.261Z,33.10
2018-07-12T06:16:42.073Z,27.53
2018-07-12T06:19:10.712Z,25.20
2018-07-12T06:21:39.196Z,22.00
2018-07-12T06:24:07.741Z,23.33
2018-07-12T06:26:36.246Z,25.40
2018-07-12T06:29:04.811Z,28.87
2018-07-12T06:31:32.938Z,20.43
2018-07-12T06:34:01.839Z,15.70
2018-07-12T06:36:30.651Z,20.60
2018-07-12T06:38:59.148Z,21.60
2018-07-12T06:41:27.618Z,18.97
2018-07-12T06:43:56.128Z,20.60
2018-07-12T06:46:24.770Z,17.57
2018-07-12T06:48:53.532Z,13.37
2018-07-12T06:51:22.045Z,17.27
2018-07-12T06:53:50.731Z,22.70
2018-07-12T06:56:19.479Z,18.60
2018-07-12T06:58:47.998Z,18.10
2018-07-12T07:01:16.498Z,14.20
2018-07-12T07:03:45.009Z,18.40
2018-07-12T07:06:13.733Z,16.77
2018-07-12T07:08:42.450Z,20.37
2018-07-12T07:11:10.645Z,16.30
2018-07-12T07:13:39.618Z,18.50
2018-07-12T07:16:08.230Z,13.57
2018-07-12T07:18:37.170Z,10.87
2018-07-12T07:21:05.674Z,17.90
2018-07-12T07:23:33.770Z,14.53
2018-07-12T07:26:02.291Z,12.10
2018-07-12T07:28:31.117Z,13.40
2018-07-12T07:30:59.320Z,11.70
2018-07-12T07:33:27.830Z,11.63
2018-07-12T07:35:56.327Z,13.40
2018-07-12T07:38:24.833Z,11.87
2018-07-12T07:40:53.025Z,9.10
2018-07-12T07:43:21.953Z,7.10
2018-07-12T07:45:51.013Z,7.83
2018-07-12T07:48:19.942Z,7.37
2018-07-12T07:50:48.861Z,13.10
2018-07-12T07:53:17.558Z,15.43
2018-07-12T07:55:46.634Z,10.80
2018-07-12T07:58:15.277Z,10.67
2018-07-12T08:00:43.751Z,14.97
2018-07-12T08:03:12.455Z,9.23
2018-07-12T08:05:41.245Z,7.97
2018-07-12T08:08:09.758Z,8.20
2018-07-12T08:10:38.273Z,5.40
2018-07-12T08:13:06.930Z,6.80
2018-07-12T08:15:37.092Z,6.50
2018-07-12T08:18:05.605Z,7.40
2018-07-12T08:20:34.151Z,10.03
2018-07-12T08:23:02.603Z,6.30
2018-07-12T08:25:31.433Z,6.20
2018-07-12T08:28:11.140Z,6.33
2018-07-12T08:30:39.624Z,5.73
2018-07-12T08:33:08.129Z,5.50
2018-07-12T08:35:36.574Z,5.33
2018-07-12T09:09:34.230Z,3.83
2018-07-12T09:12:02.774Z,5.40
2018-07-12T09:14:31.503Z,4.90
2018-07-12T09:17:00.245Z,4.90
2018-07-12T09:19:28.686Z,5.03
2018-07-12T09:21:57.457Z,4.37
2018-07-12T09:24:25.921Z,4.60
2018-07-12T09:26:54.345Z,5.80
2018-07-12T09:29:22.818Z,6.10
2018-07-12T09:31:51.300Z,5.77
2018-07-12T09:34:20.014Z,4.43
2018-07-12T09:36:48.974Z,5.50
2018-07-12T09:39:17.715Z,4.60
2018-07-12T09:41:46.419Z,3.60
2018-07-12T09:44:14.928Z,3.23
2018-07-12T09:46:43.528Z,4.17
2018-07-12T09:49:11.941Z,4.40
2018-07-12T09:51:40.322Z,4.67
2018-07-12T09:54:08.846Z,4.10
2018-07-12T09:57:51.873Z,3.60
2018-07-12T10:00:24.579Z,3.47
2018-07-12T10:02:58.070Z,2.83
2018-07-12T10:05:32.130Z,3.43
2018-07-12T10:08:05.811Z,3.07
2018-07-12T10:10:38.490Z,6.50
2018-07-12T10:13:12.480Z,2.83
2018-07-12T10:15:42.881Z,3.10
2018-07-12T10:18:16.702Z,3.20
2018-07-12T10:20:44.954Z,3.17
2018-07-12T10:23:13.481Z,3.10
2018-07-12T10:25:42.073Z,2.77
2018-07-12T10:28:10.903Z,2.70
2018-07-12T10:30:39.702Z,3.13
2018-07-12T10:33:08.468Z,3.33
2018-07-12T10:35:37.129Z,2.80
2018-07-12T10:38:06.138Z,2.33
2018-07-12T10:40:34.591Z,2.63
2018-07-12T10:43:03.068Z,3.23
2018-07-12T10:45:31.603Z,3.50
2018-07-12T10:48:00.105Z,2.50
2018-07-12T10:50:28.257Z,2.83
2018-07-12T10:52:56.770Z,3.03
2018-07-12T10:55:25.234Z,3.03
2018-07-12T10:57:53.870Z,3.17
2018-07-12T11:00:22.318Z,2.20
2018-07-12T11:02:50.716Z,3.73
2018-07-12T11:05:20.376Z,2.80
2018-07-12T11:07:48.903Z,3.53
2018-07-12T11:10:17.401Z,2.53
2018-07-12T11:12:50.383Z,2.43
2018-07-12T11:15:18.828Z,2.50
2018-07-12T11:17:48.137Z,3.43
2018-07-12T11:20:16.659Z,3.63
2018-07-12T11:22:45.478Z,3.33
2018-07-12T11:25:13.966Z,3.73
2018-07-12T11:27:42.446Z,3.10
2018-07-12T11:30:11.025Z,2.73
2018-07-12T11:32:39.483Z,3.10
2018-07-12T11:35:08.043Z,2.40
2018-07-12T11:37:36.772Z,2.80
2018-07-12T11:40:05.667Z,3.67
2018-07-12T11:42:34.670Z,2.50
2018-07-12T11:45:02.826Z,3.00
2018-07-12T11:47:31.310Z,2.60
2018-07-12T11:50:00.020Z,3.20
2018-07-12T11:52:28.590Z,2.60
2018-07-12T11:54:57.304Z,2.80
2018-07-12T11:57:25.845Z,2.50
2018-07-12T11:59:54.512Z,3.10
2018-07-12T12:02:23.144Z,2.30
2018-07-12T12:04:52.320Z,2.90
2018-07-12T12:07:21.103Z,2.27
2018-07-12T12:09:49.279Z,2.53
2018-07-12T12:12:18.033Z,3.30
2018-07-12T12:14:46.968Z,3.00
2018-07-12T12:17:15.184Z,2.77
2018-07-12T12:19:44.045Z,2.60
2018-07-12T12:22:12.806Z,3.50
2018-07-12T12:24:41.254Z,3.67
2018-07-12T12:27:09.817Z,2.57
2018-07-12T12:29:38.686Z,2.37
2018-07-12T12:32:07.402Z,2.27
2018-07-12T12:34:36.059Z,3.37
2018-07-12T12:37:04.628Z,2.50
2018-07-12T12:39:33.185Z,3.37
2018-07-12T12:42:01.752Z,2.53
2018-07-12T12:44:30.327Z,2.67
2018-07-12T12:46:58.834Z,3.07
2018-07-12T12:49:28.144Z,2.60
2018-07-12T12:51:56.542Z,2.70
2018-07-12T12:54:25.516Z,2.43
2018-07-12T12:56:54.043Z,2.43
2018-07-12T12:59:22.969Z,2.53
2018-07-12T13:01:52.177Z,5.50
2018-07-12T13:04:20.621Z,2.83
2018-07-12T13:06:49.095Z,2.30
2018-07-12T13:09:18.283Z,2.63
2018-07-12T13:11:46.782Z,2.20
2018-07-12T13:14:15.255Z,2.60
2018-07-12T13:16:43.689Z,2.60
2018-07-12T13:19:12.753Z,3.73
2018-07-12T13:21:41.788Z,2.63
2018-07-12T13:24:10.358Z,3.03
2018-07-12T13:26:38.839Z,3.37
2018-07-12T13:29:08.319Z,6.30
2018-07-12T13:31:36.847Z,2.27
2018-07-12T13:34:05.068Z,2.53
2018-07-12T13:36:33.609Z,2.47
2018-07-12T13:39:02.605Z,2.57
2018-07-12T13:41:31.124Z,3.40
2018-07-12T13:44:10.851Z,3.90
2018-07-12T13:46:39.358Z,2.70
2018-07-12T13:49:07.909Z,3.10
2018-07-12T13:51:36.603Z,3.30
2018-07-12T13:54:05.601Z,2.20
2018-07-12T13:56:34.123Z,3.00
2018-07-12T13:59:02.602Z,2.97
2018-07-12T14:01:31.344Z,2.47
2018-07-12T14:03:59.905Z,12.87
2018-07-12T14:06:28.564Z,2.50
2018-07-12T14:08:57.067Z,3.07
2018-07-12T14:11:25.559Z,2.40
2018-07-12T14:13:54.194Z,2.80
2018-07-12T14:16:23.188Z,3.37
2018-07-12T14:18:52.043Z,3.07
2018-07-12T14:21:20.594Z,2.90
2018-07-12T14:23:48.976Z,2.77
2018-07-12T14:26:17.504Z,3.50
2018-07-12T14:28:46.327Z,2.70
2018-07-12T14:31:14.968Z,2.40
2018-07-12T14:33:43.602Z,3.07
2018-07-12T14:36:12.352Z,2.50
2018-07-12T14:38:40.932Z,2.40
2018-07-12T14:41:09.482Z,3.00
2018-07-12T14:43:37.965Z,2.90
2018-07-12T14:46:06.563Z,2.73
2018-07-12T14:48:35.129Z,2.60
2018-07-12T14:51:03.800Z,2.97
2018-07-12T14:53:32.262Z,2.60
2018-07-12T14:56:00.857Z,3.10
2018-07-12T14:58:29.338Z,3.23
2018-07-12T15:00:57.838Z,3.00
2018-07-12T15:03:26.376Z,3.77
2018-07-12T15:05:55.848Z,2.90
2018-07-12T15:08:24.509Z,2.80
2018-07-12T15:10:53.145Z,2.87
2018-07-12T15:13:21.680Z,3.70
2018-07-12T15:15:50.184Z,2.53
2018-07-12T15:18:18.697Z,4.40
2018-07-12T15:20:47.258Z,3.20
2018-07-12T15:23:18.863Z,2.70
2018-07-12T15:25:47.652Z,3.77
2018-07-12T15:28:16.521Z,3.30
2018-07-12T15:30:45.236Z,2.80
2018-07-12T15:33:14.337Z,2.50
2018-07-12T15:35:42.805Z,2.30
2018-07-12T15:38:11.324Z,2.80
2018-07-12T15:40:39.873Z,3.13
2018-07-12T15:43:11.317Z,2.27
2018-07-12T15:45:39.452Z,2.80
2018-07-12T15:48:07.949Z,3.30
2018-07-12T15:50:36.565Z,2.43
2018-07-12T15:53:04.737Z,2.50
2018-07-12T15:55:33.324Z,2.83
2018-07-12T15:58:02.092Z,2.90
2018-07-12T16:00:30.693Z,2.47
2018-07-12T16:02:58.877Z,3.00
2018-07-12T16:05:27.583Z,3.47
2018-07-12T16:07:56.323Z,2.43
2018-07-12T16:10:24.964Z,2.57
2018-07-12T16:12:53.512Z,3.40
2018-07-12T16:15:22.150Z,2.97
2018-07-12T16:17:50.706Z,2.90
2018-07-12T16:20:19.388Z,4.47
2018-07-12T16:22:47.918Z,3.80
2018-07-12T16:25:16.488Z,3.13
2018-07-12T16:27:45.036Z,2.70
2018-07-12T16:30:13.554Z,2.73
2018-07-12T16:32:42.490Z,3.27
2018-07-12T16:35:11.018Z,3.03
2018-07-12T16:37:39.528Z,3.60
2018-07-12T16:40:08.122Z,3.07
2018-07-12T16:42:36.641Z,3.53
2018-07-12T16:45:05.239Z,2.73
2018-07-12T16:47:34.362Z,2.73
2018-07-12T16:50:02.885Z,3.13
2018-07-12T16:52:31.052Z,2.83
2018-07-12T16:54:59.755Z,2.50
2018-07-12T16:57:28.251Z,2.90
2018-07-12T16:59:56.804Z,2.33
2018-07-12T17:02:25.408Z,2.57
2018-07-12T17:04:54.068Z,3.43
2018-07-12T17:07:22.694Z,3.07
2018-07-12T17:09:51.249Z,2.70
2018-07-12T17:12:19.843Z,2.73
2018-07-12T17:14:48.305Z,3.07
2018-07-12T17:17:16.965Z,3.10
2018-07-12T17:19:45.833Z,2.60
2018-07-12T17:22:14.830Z,3.80
2018-07-12T17:24:43.695Z,3.87
2018-07-12T17:27:12.332Z,2.80
2018-07-12T17:29:40.897Z,3.50
2018-07-12T17:32:09.714Z,3.67
2018-07-12T17:34:38.907Z,2.80
2018-07-12T17:37:07.553Z,2.50
2018-07-12T17:39:35.773Z,3.20
2018-07-12T17:42:05.027Z,2.93
2018-07-12T17:44:33.679Z,2.70
2018-07-12T17:47:02.173Z,3.63
2018-07-12T17:49:30.818Z,2.90
2018-07-12T17:51:59.418Z,2.83
2018-07-12T17:54:27.966Z,3.13
2018-07-12T17:56:56.633Z,2.57
2018-07-12T17:59:25.308Z,2.97
2018-07-12T18:01:53.868Z,3.00
2018-07-12T18:04:22.341Z,3.17
2018-07-12T18:06:51.092Z,2.23
2018-07-12T18:09:20.233Z,2.80
2018-07-12T18:11:48.999Z,3.50
2018-07-12T18:14:17.599Z,2.83
2018-07-12T18:16:46.200Z,2.50
2018-07-12T18:19:14.806Z,3.20
2018-07-12T18:21:43.553Z,3.13
2018-07-12T18:24:12.081Z,2.70
2018-07-12T18:26:40.765Z,3.13
2018-07-12T18:29:09.453Z,3.20
2018-07-12T18:31:38.038Z,3.30
2018-07-12T18:34:06.687Z,2.73
2018-07-12T18:36:35.292Z,3.07
2018-07-12T18:39:04.868Z,3.40
2018-07-12T18:41:34.431Z,2.30
2018-07-12T18:44:02.769Z,3.00
2018-07-12T18:46:31.372Z,2.50
2018-07-12T18:49:00.166Z,3.33
2018-07-12T18:51:28.831Z,2.47
2018-07-12T18:53:57.505Z,9.40
2018-07-12T18:56:26.089Z,3.60
2018-07-12T18:58:54.993Z,4.03
2018-07-12T19:01:23.649Z,8.03
2018-07-12T19:03:52.949Z,4.43
2018-07-12T19:06:21.638Z,3.00
2018-07-12T19:08:50.490Z,3.47
2018-07-12T19:11:18.990Z,3.63
2018-07-12T19:13:48.795Z,2.77
2018-07-12T19:16:18.056Z,3.73
2018-07-12T19:18:46.766Z,3.13
2018-07-12T19:21:15.176Z,3.10
2018-07-12T19:23:43.760Z,3.00
2018-07-12T19:26:12.351Z,3.00
2018-07-12T19:28:40.971Z,3.03
2018-07-12T19:31:09.520Z,2.70
2018-07-12T19:33:38.119Z,3.27
2018-07-12T19:36:06.700Z,3.60
2018-07-12T19:38:35.424Z,2.60
2018-07-12T19:41:03.647Z,4.83
2018-07-12T19:43:32.194Z,2.70
2018-07-12T19:46:00.753Z,3.10
2018-07-12T19:48:29.807Z,2.70
2018-07-12T19:50:58.542Z,2.77
2018-07-12T19:53:27.585Z,3.87
2018-07-12T19:55:56.442Z,3.67
2018-07-12T19:58:24.855Z,3.20
2018-07-12T20:00:53.628Z,3.50
2018-07-12T20:03:22.256Z,4.43
2018-07-12T20:05:50.925Z,3.43
2018-07-12T20:08:19.542Z,3.83
2018-07-12T20:10:48.683Z,3.57
2018-07-12T20:13:17.235Z,3.10
2018-07-12T20:15:45.558Z,3.80
2018-07-12T20:18:13.761Z,3.23
2018-07-12T20:20:42.599Z,3.73
2018-07-12T20:23:11.126Z,2.57
2018-07-12T20:25:39.669Z,3.37
2018-07-12T20:28:08.161Z,4.00
2018-07-12T20:30:37.024Z,3.83
2018-07-12T20:33:05.645Z,4.10
2018-07-12T20:35:34.150Z,4.73
2018-07-12T20:38:02.630Z,3.70
2018-07-12T20:40:31.610Z,4.97
2018-07-12T20:43:00.287Z,3.53
2018-07-12T20:45:28.997Z,4.10
2018-07-12T20:47:57.577Z,5.10
2018-07-12T20:50:26.148Z,4.50
2018-07-12T20:52:54.653Z,4.27
2018-07-12T20:55:23.197Z,4.40
2018-07-12T20:57:51.729Z,4.13
2018-07-12T21:00:20.329Z,7.27
2018-07-12T21:02:48.787Z,4.33
2018-07-12T21:05:17.272Z,3.87
2018-07-12T21:07:45.507Z,4.13
2018-07-12T21:10:14.770Z,5.00
2018-07-12T21:12:43.303Z,3.57
2018-07-12T21:15:11.911Z,4.40
2018-07-12T21:17:40.370Z,4.23
2018-07-12T21:20:09.756Z,4.60
2018-07-12T21:22:38.238Z,4.00
2018-07-12T21:25:07.499Z,4.40
2018-07-12T21:27:36.009Z,5.00
2018-07-12T21:30:07.239Z,5.33
2018-07-12T21:32:35.746Z,4.73
2018-07-12T21:35:04.314Z,4.50
2018-07-12T21:37:33.082Z,6.33
2018-07-12T21:40:01.738Z,5.50
2018-07-12T21:42:29.903Z,5.37
2018-07-12T21:44:58.430Z,4.90
2018-07-12T21:47:26.961Z,4.47
2018-07-12T21:49:55.474Z,5.23
2018-07-12T21:52:24.025Z,4.73
2018-07-12T21:54:52.709Z,5.50
2018-07-12T21:57:21.217Z,10.30
2018-07-12T21:59:50.692Z,6.23
2018-07-12T22:02:19.266Z,4.40
2018-07-12T22:04:47.759Z,4.80
2018-07-12T22:08:35.351Z,6.33
2018-07-12T22:11:05.029Z,5.23
2018-07-12T22:13:34.646Z,5.60
2018-07-12T22:16:03.216Z,4.13
2018-07-12T22:18:31.709Z,4.83
2018-07-12T22:21:00.223Z,5.20
2018-07-12T22:23:29.615Z,4.20
2018-07-12T22:25:58.106Z,4.93
2018-07-12T22:28:26.722Z,5.40
2018-07-12T22:30:55.217Z,6.53
2018-07-12T22:33:23.876Z,5.07
2018-07-12T22:35:52.359Z,5.50
2018-07-12T22:38:21.231Z,4.70
2018-07-12T22:40:49.762Z,5.10
2018-07-12T22:43:18.271Z,5.90
2018-07-12T22:45:46.870Z,5.10
2018-07-12T22:48:15.556Z,6.17
2018-07-12T22:50:44.031Z,4.67
2018-07-12T22:53:12.581Z,5.30
2018-07-12T22:55:41.072Z,4.47
2018-07-12T22:58:09.637Z,5.27
2018-07-12T23:00:37.744Z,5.43
2018-07-12T23:03:06.312Z,5.97
2018-07-12T23:05:34.843Z,5.47
2018-07-12T23:08:03.334Z,4.60
2018-07-12T23:10:31.874Z,4.80
2018-07-12T23:13:00.390Z,5.93
2018-07-12T23:15:28.837Z,5.47
2018-07-12T23:17:57.302Z,6.33
2018-07-12T23:20:25.743Z,6.47
2018-07-12T23:22:54.874Z,4.80
2018-07-12T23:25:23.452Z,4.50
2018-07-12T23:27:51.909Z,8.63
2018-07-12T23:30:20.382Z,7.27
2018-07-12T23:32:49.111Z,4.93
2018-07-12T23:35:17.635Z,5.27
2018-07-12T23:37:46.162Z,5.33
2018-07-12T23:40:15.121Z,4.30
2018-07-12T23:42:43.721Z,4.63
2018-07-12T23:45:12.179Z,5.33
2018-07-12T23:47:40.682Z,5.90
2018-07-12T23:50:09.124Z,5.83
2018-07-12T23:52:37.601Z,5.00
2018-07-12T23:55:06.291Z,5.30
2018-07-12T23:57:34.870Z,5.97
